Time;durP1;ratioP1;P1;durP2;ratioP2;P2;SDS_P1;SDS_P2;PMS_P1;PMS_P2;Temp;Humidity;BMP_temperature;BMP_pressure;BME280_temperature;BME280_humidity;BME280_pressure;Samples;Min_cycle;Max_cycle;Signal;HPM_P1;HPM_P2
2023/04/22 00:01:29;;;;;;;60.13;21.25;;;;;;;13.00;64.33;100441.16;5061065;28;20146;-82
2023/04/22 00:03:54;;;;;;;43.00;19.83;;;;;;;13.03;64.17;100432.78;5066473;28;20032;-83
2023/04/22 00:06:20;;;;;;;42.67;17.55;;;;;;;13.02;63.84;100441.88;5066725;28;20056;-84
2023/04/22 00:08:45;;;;;;;57.65;18.77;;;;;;;13.04;63.72;100439.88;5046600;28;20033;-83
2023/04/22 00:11:11;;;;;;;42.38;18.65;;;;;;;13.15;63.56;100432.66;5065601;28;20124;-84
2023/04/22 00:13:36;;;;;;;40.35;18.02;;;;;;;13.17;63.36;100422.56;5069264;28;20152;-84
2023/04/22 00:16:03;;;;;;;43.33;16.90;;;;;;;13.17;63.02;100427.94;5069996;28;20090;-85
2023/04/22 00:18:28;;;;;;;43.13;16.48;;;;;;;13.19;62.69;100434.91;5050411;28;20047;-84
2023/04/22 00:20:54;;;;;;;38.97;14.82;;;;;;;13.24;62.33;100429.06;5054300;28;20519;-85
2023/04/22 00:23:19;;;;;;;44.20;14.05;;;;;;;13.09;62.38;100415.16;5066252;28;20040;-84
2023/04/22 00:25:45;;;;;;;38.28;14.50;;;;;;;13.17;62.26;100439.59;5067577;28;20050;-82
2023/04/22 00:28:10;;;;;;;40.78;14.35;;;;;;;13.19;62.22;100436.75;5048976;28;20596;-84
2023/04/22 00:30:36;;;;;;;36.30;14.23;;;;;;;13.24;61.98;100437.19;5058151;28;20025;-82
2023/04/22 00:33:01;;;;;;;35.33;15.25;;;;;;;13.20;62.05;100433.06;5052754;28;20254;-84
2023/04/22 00:35:27;;;;;;;39.97;15.45;;;;;;;13.17;62.28;100439.59;5047445;28;20036;-83
2023/04/22 00:37:52;;;;;;;36.30;21.92;;;;;;;13.11;63.23;100429.38;5061250;28;20036;-82
2023/04/22 00:40:18;;;;;;;51.08;22.08;;;;;;;13.21;62.99;100429.38;5050316;28;20098;-84
2023/04/22 00:42:44;;;;;;;42.50;23.15;;;;;;;13.24;63.54;100429.91;5062127;28;20028;-86
2023/04/22 00:45:12;;;;;;;63.60;24.75;;;;;;;13.24;63.61;100412.88;5060166;28;20096;-83
2023/04/22 00:47:37;;;;;;;48.80;23.23;;;;;;;13.29;63.85;100430.34;5051924;28;20037;-83
2023/04/22 00:50:04;;;;;;;70.97;20.38;;;;;;;13.36;63.87;100433.31;5087237;28;20032;-80
2023/04/22 00:52:29;;;;;;;39.83;19.60;;;;;;;13.26;64.13;100406.31;5073383;28;20025;-82
2023/04/22 00:54:55;;;;;;;51.80;19.55;;;;;;;13.41;64.09;100436.41;5074418;28;20058;-83
2023/04/22 00:57:21;;;;;;;41.15;19.52;;;;;;;13.44;63.86;100436.09;5079976;28;20055;-83
2023/04/22 00:59:46;;;;;;;42.42;20.63;;;;;;;13.46;63.67;100428.69;5059468;28;20056;-87
2023/04/22 01:02:13;;;;;;;49.03;21.67;;;;;;;13.46;63.67;100436.81;5063574;28;21154;-87
2023/04/22 01:04:38;;;;;;;46.28;20.30;;;;;;;13.43;63.69;100434.41;5065843;28;20664;-84
2023/04/22 01:07:04;;;;;;;52.03;21.25;;;;;;;13.33;63.57;100429.03;5055997;28;20074;-83
2023/04/22 01:09:29;;;;;;;39.95;21.40;;;;;;;13.37;63.38;100435.84;5067332;28;20540;-85
2023/04/22 01:11:56;;;;;;;65.50;22.83;;;;;;;13.38;63.11;100431.28;5067200;28;20461;-84
2023/04/22 01:14:22;;;;;;;62.75;22.77;;;;;;;13.36;63.24;100431.44;5031915;28;20052;-81
2023/04/22 01:16:49;;;;;;;51.28;21.20;;;;;;;13.26;63.46;100411.72;5049427;28;20454;-83
2023/04/22 01:19:15;;;;;;;68.38;24.13;;;;;;;13.36;63.05;100422.50;5067739;28;20082;-80
2023/04/22 01:21:43;;;;;;;64.75;23.60;;;;;;;13.36;63.23;100417.91;5067331;28;20020;-84
2023/04/22 01:24:09;;;;;;;47.63;22.92;;;;;;;13.30;63.24;100406.88;5068262;28;20052;-82
2023/04/22 01:26:36;;;;;;;58.47;20.67;;;;;;;13.35;63.01;100413.53;5072481;28;20032;-83
2023/04/22 01:29:02;;;;;;;51.60;19.13;;;;;;;13.36;62.59;100406.28;5074153;28;20060;-82
2023/04/22 01:31:28;;;;;;;33.72;15.50;;;;;;;13.40;61.37;100407.66;5075158;28;20091;-82
2023/04/22 01:33:54;;;;;;;36.03;13.32;;;;;;;13.39;60.96;100408.69;5074438;28;20107;-83
2023/04/22 01:36:20;;;;;;;22.63;10.45;;;;;;;13.35;60.49;100415.38;5067496;28;20041;-85
2023/04/22 01:38:45;;;;;;;32.05;11.00;;;;;;;13.35;60.21;100409.97;5056697;28;20450;-83
2023/04/22 01:41:12;;;;;;;48.85;10.55;;;;;;;13.31;59.59;100419.38;5037313;28;20068;-83
2023/04/22 01:43:39;;;;;;;22.83;10.07;;;;;;;13.29;59.26;100411.44;5059520;28;20041;-80
2023/04/22 01:46:05;;;;;;;30.45;9.70;;;;;;;13.27;59.62;100412.56;5069251;28;20029;-82
2023/04/22 01:48:31;;;;;;;32.90;8.20;;;;;;;13.27;59.19;100418.81;5063749;28;20063;-82
2023/04/22 01:50:56;;;;;;;29.35;6.90;;;;;;;13.23;59.36;100412.00;5053158;28;20060;-83
2023/04/22 01:53:21;;;;;;;21.77;7.03;;;;;;;13.23;59.16;100411.16;5067607;28;20385;-82
2023/04/22 01:55:47;;;;;;;29.67;7.88;;;;;;;13.24;59.03;100412.88;5051776;28;20055;-86
2023/04/22 01:58:12;;;;;;;44.45;9.63;;;;;;;13.22;59.25;100413.00;5041765;28;20033;-84
2023/04/22 02:00:38;;;;;;;26.50;8.77;;;;;;;13.26;58.55;100416.28;5070473;28;20478;-85
2023/04/22 02:03:03;;;;;;;18.15;7.82;;;;;;;13.26;58.73;100413.56;5065849;28;20454;-84
2023/04/22 02:05:29;;;;;;;19.05;7.93;;;;;;;13.14;58.53;100404.78;5070020;28;20029;-84
2023/04/22 02:07:54;;;;;;;20.48;7.55;;;;;;;13.11;58.48;100396.13;5053438;28;20043;-84
2023/04/22 02:10:20;;;;;;;34.00;7.82;;;;;;;13.19;58.36;100405.19;5057859;28;20052;-85
2023/04/22 02:12:45;;;;;;;26.35;7.18;;;;;;;13.23;58.88;100398.50;5070517;28;20064;-83
2023/04/22 02:15:11;;;;;;;31.08;8.13;;;;;;;13.26;58.73;100410.88;5056995;28;20091;-85
2023/04/22 02:17:37;;;;;;;36.40;8.75;;;;;;;13.23;58.72;100395.81;5062375;28;20044;-80
2023/04/22 02:20:03;;;;;;;21.92;6.88;;;;;;;13.21;58.54;100396.97;5044222;28;20411;-85
2023/04/22 02:22:29;;;;;;;22.13;7.03;;;;;;;13.28;58.01;100406.16;5059260;28;20047;-83
2023/04/22 02:24:55;;;;;;;31.10;6.88;;;;;;;13.27;58.37;100412.56;5069380;28;20495;-83
2023/04/22 02:27:20;;;;;;;26.73;7.45;;;;;;;13.29;58.39;100408.72;5065110;28;20531;-84
2023/04/22 02:29:46;;;;;;;33.78;7.78;;;;;;;13.30;58.55;100412.28;5069892;28;20468;-82
2023/04/22 02:32:11;;;;;;;18.92;7.40;;;;;;;13.25;58.16;100403.75;5069410;28;20094;-84
2023/04/22 02:34:37;;;;;;;25.52;5.65;;;;;;;13.28;58.27;100409.72;5053832;28;20064;-84
2023/04/22 02:37:02;;;;;;;30.40;7.45;;;;;;;13.24;58.20;100413.69;5051171;28;20048;-83
2023/04/22 02:39:28;;;;;;;19.02;6.93;;;;;;;13.20;58.17;100392.56;5050860;28;20052;-83
2023/04/22 02:41:53;;;;;;;24.27;6.90;;;;;;;13.19;58.21;100417.84;5069546;28;20084;-82
2023/04/22 02:44:19;;;;;;;41.35;8.82;;;;;;;13.14;58.58;100406.63;5074771;28;20017;-83
2023/04/22 02:46:44;;;;;;;30.55;8.68;;;;;;;13.06;58.91;100408.19;5066960;28;20042;-85
2023/04/22 02:49:09;;;;;;;32.70;8.82;;;;;;;13.06;59.00;100415.41;5056072;28;20048;-85
2023/04/22 02:51:37;;;;;;;31.60;9.55;;;;;;;12.95;59.46;100411.06;5075953;28;20048;-81
2023/04/22 02:54:03;;;;;;;37.63;14.80;;;;;;;12.76;60.49;100418.31;5078992;28;20032;-83
2023/04/22 02:56:28;;;;;;;43.80;12.65;;;;;;;12.57;60.70;100400.31;5051356;28;20025;-83
2023/04/22 02:58:53;;;;;;;32.00;13.27;;;;;;;12.81;60.77;100426.84;5070573;28;20058;-84
2023/04/22 03:01:19;;;;;;;33.83;12.18;;;;;;;12.80;61.17;100428.69;5060122;28;20071;-84
2023/04/22 03:03:44;;;;;;;49.80;15.98;;;;;;;12.72;60.89;100425.84;5068124;28;20083;-82
2023/04/22 03:06:10;;;;;;;44.05;16.25;;;;;;;12.57;61.89;100417.34;5065979;28;20055;-84
2023/04/22 03:08:35;;;;;;;45.85;15.73;;;;;;;12.55;61.72;100413.09;5060890;28;20032;-85
2023/04/22 03:11:01;;;;;;;48.42;18.23;;;;;;;12.65;61.55;100427.44;5049622;28;20476;-85
2023/04/22 03:13:26;;;;;;;51.72;16.65;;;;;;;12.59;61.63;100428.00;5064652;28;20462;-84
2023/04/22 03:15:51;;;;;;;50.95;19.20;;;;;;;12.41;61.98;100418.94;5069957;28;20472;-84
2023/04/22 03:18:17;;;;;;;47.25;19.30;;;;;;;12.34;62.83;100417.78;5069561;28;20024;-83
2023/04/22 03:20:42;;;;;;;39.17;18.08;;;;;;;12.38;62.56;100421.91;5051457;28;20085;-83
2023/04/22 03:23:08;;;;;;;39.30;16.33;;;;;;;12.39;62.38;100431.69;5069092;28;20027;-82
2023/04/22 03:25:35;;;;;;;42.28;19.75;;;;;;;12.35;62.76;100425.72;5069345;28;20561;-84
2023/04/22 03:28:01;;;;;;;56.90;25.80;;;;;;;12.33;63.83;100426.84;5069466;28;20463;-86
2023/04/22 03:30:26;;;;;;;61.90;30.02;;;;;;;12.30;64.66;100432.53;5069903;28;20054;-82
2023/04/22 03:32:52;;;;;;;66.75;32.00;;;;;;;12.18;65.48;100439.03;5070774;28;20021;-83
2023/04/22 03:35:19;;;;;;;64.13;32.70;;;;;;;12.16;65.96;100436.50;5069608;28;20036;-81
2023/04/22 03:37:44;;;;;;;80.35;31.85;;;;;;;12.22;66.07;100451.25;5075013;28;20021;-82
2023/04/22 03:40:10;;;;;;;63.72;35.83;;;;;;;12.21;66.49;100454.94;5078949;28;20040;-83
2023/04/22 03:42:36;;;;;;;61.20;30.60;;;;;;;12.06;66.55;100432.91;5073570;28;20035;-84
2023/04/22 03:45:01;;;;;;;79.63;34.28;;;;;;;12.06;66.82;100448.25;5052238;28;20032;-83
2023/04/22 03:47:27;;;;;;;75.20;35.15;;;;;;;12.22;66.87;100456.66;5065765;28;20020;-83
2023/04/22 03:49:52;;;;;;;90.30;38.90;;;;;;;12.12;67.96;100458.47;5069560;28;20086;-84
2023/04/22 03:52:18;;;;;;;72.35;35.72;;;;;;;12.06;67.99;100464.41;5069017;28;20521;-83
2023/04/22 03:54:43;;;;;;;80.53;35.15;;;;;;;12.11;68.22;100476.47;5069187;28;20040;-81
2023/04/22 03:57:08;;;;;;;80.18;36.33;;;;;;;12.11;68.06;100475.66;5069141;28;20483;-81
2023/04/22 03:59:34;;;;;;;71.90;33.80;;;;;;;12.09;68.09;100480.31;5055082;28;20053;-83
2023/04/22 04:01:59;;;;;;;100.03;38.13;;;;;;;12.05;68.10;100481.59;5068730;28;20392;-82
2023/04/22 04:04:27;;;;;;;83.88;34.45;;;;;;;12.10;68.18;100493.66;5055916;28;20406;-84
2023/04/22 04:06:57;;;;;;;70.30;31.23;;;;;;;12.10;68.12;100501.75;5068815;28;20028;-81
2023/04/22 04:09:22;;;;;;;51.85;28.85;;;;;;;12.13;67.37;100492.53;5065995;28;20028;-82
2023/04/22 04:11:48;;;;;;;60.08;27.98;;;;;;;12.17;67.29;100502.06;5066647;28;20031;-90
2023/04/22 04:14:13;;;;;;;123.78;64.63;;;;;;;12.18;66.63;100492.97;5051475;28;20073;-83
2023/04/22 04:16:38;;;;;;;84.50;36.00;;;;;;;12.30;66.33;100508.03;5074619;28;20092;-90
2023/04/22 04:19:05;;;;;;;78.45;31.50;;;;;;;12.39;66.38;100512.59;5092850;28;20067;-80
2023/04/22 04:21:32;;;;;;;80.03;30.40;;;;;;;12.41;65.81;100505.22;5091205;28;20056;-80
2023/04/22 04:23:58;;;;;;;53.33;26.58;;;;;;;12.44;66.00;100504.94;5074280;28;20067;-83
2023/04/22 04:26:23;;;;;;;69.05;26.10;;;;;;;12.51;65.52;100500.69;5069345;28;20041;-83
2023/04/22 04:28:49;;;;;;;68.43;27.05;;;;;;;12.68;65.11;100515.34;5064467;28;20021;-83
2023/04/22 04:31:14;;;;;;;47.17;22.42;;;;;;;12.76;64.51;100515.47;5060148;28;20056;-86
2023/04/22 04:33:40;;;;;;;52.30;21.75;;;;;;;12.77;63.95;100511.78;5059923;28;20024;-82
2023/04/22 04:36:07;;;;;;;46.30;21.77;;;;;;;12.88;63.75;100520.59;5075332;28;20095;-82
2023/04/22 04:38:33;;;;;;;61.50;25.33;;;;;;;12.84;63.40;100529.13;5067887;28;20531;-86
2023/04/22 04:40:58;;;;;;;54.40;26.20;;;;;;;12.87;63.49;100535.06;5058652;28;20036;-82
2023/04/22 04:43:24;;;;;;;59.10;28.85;;;;;;;12.96;63.55;100533.41;5067372;28;20030;-85
2023/04/22 04:45:53;;;;;;;52.90;23.58;;;;;;;13.03;63.66;100524.56;5068643;28;20044;-81
2023/04/22 04:48:41;;;;;;;47.65;22.73;;;;;;;13.17;63.22;100530.56;5052401;28;20025;-83
2023/04/22 04:51:07;;;;;;;44.05;23.05;;;;;;;13.26;63.03;100535.97;5070667;28;20040;-83
2023/04/22 04:53:32;;;;;;;49.55;23.15;;;;;;;13.36;62.40;100541.34;5067956;28;20045;-79
2023/04/22 04:55:58;;;;;;;47.78;22.15;;;;;;;13.45;62.02;100554.00;5064924;28;20059;-85
2023/04/22 04:58:23;;;;;;;48.65;20.85;;;;;;;13.53;61.56;100560.38;5064565;28;20036;-78
2023/04/22 05:00:48;;;;;;;53.25;20.17;;;;;;;13.56;61.63;100570.03;5063667;28;20044;-83
2023/04/22 05:03:14;;;;;;;50.92;20.13;;;;;;;13.60;61.41;100560.63;5064187;28;20029;-84
2023/04/22 05:05:39;;;;;;;71.57;20.85;;;;;;;13.63;61.38;100563.06;5060421;28;20432;-83
2023/04/22 05:08:05;;;;;;;55.92;20.08;;;;;;;13.63;61.35;100565.75;5044623;28;20845;-85
2023/04/22 05:10:30;;;;;;;49.25;18.50;;;;;;;13.66;61.45;100554.66;4994822;28;20441;-83
2023/04/22 05:12:56;;;;;;;45.95;18.83;;;;;;;13.71;61.29;100555.06;5039826;28;20026;-86
2023/04/22 05:15:21;;;;;;;56.10;20.17;;;;;;;13.87;61.14;100562.56;5044271;28;20037;-84
2023/04/22 05:17:47;;;;;;;45.47;18.60;;;;;;;14.00;60.86;100561.22;5046068;28;20497;-88
2023/04/22 05:20:12;;;;;;;53.33;19.55;;;;;;;14.11;60.69;100565.59;5045945;28;20056;-85
2023/04/22 05:22:40;;;;;;;49.42;18.63;;;;;;;14.22;60.39;100567.25;5017248;28;20041;-84
2023/04/22 05:25:06;;;;;;;50.10;18.58;;;;;;;14.28;59.91;100569.38;5008688;28;20022;-84
2023/04/22 05:27:31;;;;;;;63.22;17.63;;;;;;;14.29;59.69;100571.06;5010899;28;20049;-85
2023/04/22 05:29:57;;;;;;;52.60;15.90;;;;;;;14.29;59.67;100569.19;5012310;28;20060;-82
2023/04/22 05:32:22;;;;;;;42.30;14.63;;;;;;;14.44;59.47;100573.13;5019616;28;20018;-83
2023/04/22 05:34:48;;;;;;;33.15;14.73;;;;;;;14.55;59.04;100575.66;5018551;28;20123;-87
2023/04/22 05:37:13;;;;;;;49.65;16.88;;;;;;;14.45;59.65;100579.41;5008197;28;20030;-81
2023/04/22 05:39:39;;;;;;;42.95;15.32;;;;;;;14.54;59.61;100578.50;5008015;28;20042;-82
2023/04/22 05:42:04;;;;;;;54.30;18.17;;;;;;;14.61;59.49;100568.78;5007285;28;20077;-81
2023/04/22 05:44:30;;;;;;;65.07;18.73;;;;;;;14.63;59.35;100580.31;5007409;28;20044;-82
2023/04/22 05:46:55;;;;;;;44.08;18.65;;;;;;;14.67;59.51;100585.28;5007001;28;20033;-80
2023/04/22 05:49:21;;;;;;;46.85;17.05;;;;;;;14.70;59.79;100584.13;5008348;28;20034;-81
2023/04/22 05:51:46;;;;;;;48.42;17.55;;;;;;;14.74;59.59;100599.03;5007195;28;20366;-81
2023/04/22 05:54:12;;;;;;;150.43;27.67;;;;;;;14.92;59.50;100599.06;5006256;28;20404;-81
2023/04/22 05:56:37;;;;;;;45.25;17.55;;;;;;;15.01;59.04;100590.88;5006703;28;20104;-80
2023/04/22 05:59:03;;;;;;;36.05;11.55;;;;;;;15.10;56.53;100592.66;5006945;28;20107;-86
2023/04/22 06:01:28;;;;;;;77.75;12.38;;;;;;;15.24;56.28;100592.09;5015031;28;20145;-86
2023/04/22 06:03:54;;;;;;;31.85;6.35;;;;;;;15.16;52.54;100602.88;5009543;28;20453;-82
2023/04/22 06:06:19;;;;;;;24.95;6.28;;;;;;;15.35;53.07;100606.44;5008509;28;20045;-85
2023/04/22 06:08:45;;;;;;;20.38;6.22;;;;;;;15.40;52.48;100606.81;5011597;28;20038;-79
2023/04/22 06:11:10;;;;;;;59.30;9.15;;;;;;;15.54;52.17;100611.69;5002063;28;20034;-80
2023/04/22 06:13:35;;;;;;;32.70;7.22;;;;;;;15.67;51.30;100604.88;5005939;28;20116;-81
2023/04/22 06:16:01;;;;;;;21.75;6.03;;;;;;;15.88;51.09;100593.66;5006385;28;20034;-81
2023/04/22 06:18:27;;;;;;;26.90;6.65;;;;;;;16.13;50.69;100609.06;5006846;28;20038;-85
2023/04/22 06:20:52;;;;;;;30.92;6.93;;;;;;;16.30;50.03;100610.84;5007913;28;20119;-84
2023/04/22 06:23:18;;;;;;;46.92;6.82;;;;;;;16.38;49.47;100612.78;5010470;28;20057;-83
2023/04/22 06:25:43;;;;;;;26.40;6.25;;;;;;;16.47;49.08;100609.06;5018747;28;20036;-82
2023/04/22 06:28:09;;;;;;;36.92;10.32;;;;;;;16.53;48.67;100610.28;5030923;28;20030;-83
2023/04/22 06:30:34;;;;;;;40.80;7.97;;;;;;;16.24;48.72;100578.06;5026231;28;20026;-82
2023/04/22 06:33:00;;;;;;;27.17;5.00;;;;;;;16.34;48.79;100614.94;5014427;28;20037;-82
2023/04/22 06:35:25;;;;;;;22.83;5.30;;;;;;;16.42;48.76;100619.56;5012334;28;20100;-83
2023/04/22 06:37:51;;;;;;;31.17;7.57;;;;;;;16.51;48.91;100618.56;5009443;28;20042;-85
2023/04/22 06:40:17;;;;;;;25.50;6.70;;;;;;;16.29;48.69;100620.03;5010450;28;20053;-86
2023/04/22 06:42:42;;;;;;;21.15;5.20;;;;;;;16.32;48.10;100617.00;5009764;28;20083;-83
2023/04/22 06:45:11;;;;;;;20.38;5.60;;;;;;;16.40;49.08;100620.72;5011002;28;20555;-84
2023/04/22 06:47:39;;;;;;;15.25;5.25;;;;;;;16.62;47.79;100622.91;5018882;28;20037;-84
2023/04/22 06:50:09;;;;;;;39.60;5.43;;;;;;;16.56;47.91;100627.13;5016015;28;20109;-84
2023/04/22 06:52:34;;;;;;;23.50;6.60;;;;;;;16.80;47.86;100631.81;5009373;28;20042;-82
2023/04/22 06:55:02;;;;;;;30.13;6.88;;;;;;;16.91;47.76;100631.50;5010286;28;20397;-81
2023/04/22 06:57:27;;;;;;;35.67;6.78;;;;;;;16.97;47.51;100630.00;5009489;28;20083;-83
2023/04/22 06:59:53;;;;;;;28.85;5.28;;;;;;;16.96;47.33;100623.72;5009836;28;20046;-79
2023/04/22 07:02:18;;;;;;;29.35;4.93;;;;;;;17.11;46.58;100626.63;5010130;28;20083;-82
2023/04/22 07:04:44;;;;;;;13.95;5.03;;;;;;;17.12;47.02;100610.16;5009457;28;20075;-79
2023/04/22 07:07:09;;;;;;;37.85;7.25;;;;;;;17.34;46.74;100628.53;5009870;28;20038;-81
2023/04/22 07:09:35;;;;;;;28.67;6.05;;;;;;;17.47;46.47;100627.16;5010126;28;20034;-80
2023/04/22 07:12:01;;;;;;;23.23;4.88;;;;;;;17.61;46.13;100629.28;5009870;28;20565;-80
2023/04/22 07:14:26;;;;;;;44.47;7.25;;;;;;;17.71;45.98;100635.38;5009567;28;20022;-82
2023/04/22 07:16:52;;;;;;;56.22;6.90;;;;;;;17.73;45.66;100622.47;5000349;28;20588;-81
2023/04/22 07:19:17;;;;;;;39.45;17.05;;;;;;;17.50;45.78;100637.72;5010416;28;20056;-81
2023/04/22 07:21:43;;;;;;;31.98;4.93;;;;;;;17.46;46.26;100644.53;5014526;28;20025;-81
2023/04/22 07:24:10;;;;;;;27.40;4.95;;;;;;;17.46;46.52;100652.69;5019334;28;20036;-82
2023/04/22 07:26:37;;;;;;;23.48;5.68;;;;;;;17.48;46.29;100640.63;5013690;28;20109;-80
2023/04/22 07:29:03;;;;;;;39.53;6.10;;;;;;;17.40;45.93;100616.97;5007794;28;20148;-81
2023/04/22 07:31:28;;;;;;;32.80;6.07;;;;;;;17.67;45.90;100651.19;5008718;28;20128;-80
2023/04/22 07:33:53;;;;;;;25.73;4.28;;;;;;;17.61;45.79;100661.91;5008478;28;20033;-83
2023/04/22 07:36:19;;;;;;;28.50;5.43;;;;;;;17.71;45.95;100652.53;5009294;28;20025;-83
2023/04/22 07:38:44;;;;;;;17.35;4.22;;;;;;;17.64;45.92;100639.81;5012265;28;20026;-85
2023/04/22 07:41:10;;;;;;;11.75;3.53;;;;;;;17.80;45.27;100658.81;5011334;28;20408;-82
2023/04/22 07:43:35;;;;;;;12.32;3.67;;;;;;;17.87;45.21;100662.56;5010607;28;20164;-82
2023/04/22 07:46:01;;;;;;;34.58;5.53;;;;;;;17.85;45.14;100665.47;5009426;28;20030;-85
2023/04/22 07:48:26;;;;;;;16.73;3.95;;;;;;;17.53;45.09;100664.56;4993042;28;20122;-84
2023/04/22 07:50:52;;;;;;;22.63;4.82;;;;;;;17.50;45.30;100656.75;5008332;28;20069;-91
2023/04/22 07:53:17;;;;;;;45.55;10.20;;;;;;;17.54;45.39;100671.72;5009940;28;20037;-89
2023/04/22 07:55:43;;;;;;;26.63;3.83;;;;;;;17.56;45.10;100670.56;5009854;28;20124;-85
2023/04/22 07:58:08;;;;;;;22.55;6.65;;;;;;;17.47;44.98;100667.97;5009577;28;20544;-85
2023/04/22 08:00:34;;;;;;;15.98;4.88;;;;;;;17.55;44.65;100668.03;5010364;28;20057;-84
2023/04/22 08:03:00;;;;;;;21.83;3.30;;;;;;;17.46;44.74;100658.13;5009473;28;20133;-86
2023/04/22 08:05:26;;;;;;;21.75;3.83;;;;;;;17.55;45.03;100660.69;5009532;28;20025;-88
2023/04/22 08:07:51;;;;;;;17.27;4.30;;;;;;;17.62;45.35;100664.44;5009993;28;20026;-87
2023/04/22 08:10:17;;;;;;;58.55;5.80;;;;;;;17.66;45.60;100665.81;5009879;28;20033;-89
2023/04/22 08:12:42;;;;;;;17.88;3.58;;;;;;;17.78;45.83;100663.59;5013374;28;20030;-87
2023/04/22 08:15:08;;;;;;;14.43;4.32;;;;;;;17.89;45.70;100665.97;5017818;28;20026;-83
2023/04/22 08:17:33;;;;;;;38.17;4.90;;;;;;;18.01;44.65;100664.59;5022913;28;20029;-83
2023/04/22 08:19:59;;;;;;;26.25;4.72;;;;;;;18.10;43.64;100668.19;5033893;28;20378;-83
2023/04/22 08:22:26;;;;;;;23.13;4.13;;;;;;;17.98;44.35;100656.78;5027156;28;20076;-88
2023/04/22 08:24:51;;;;;;;17.50;4.22;;;;;;;18.02;44.27;100666.31;5020627;28;20037;-85
2023/04/22 08:27:18;;;;;;;15.05;4.03;;;;;;;18.06;44.02;100650.47;5012459;28;20025;-87
2023/04/22 08:29:43;;;;;;;15.68;3.33;;;;;;;18.22;44.13;100650.47;5011744;28;20037;-88
2023/04/22 08:32:09;;;;;;;11.23;3.15;;;;;;;18.26;43.63;100647.22;5021450;28;20034;-81
2023/04/22 08:34:35;;;;;;;25.10;4.45;;;;;;;18.42;43.55;100660.78;5019980;28;20045;-86
2023/04/22 08:37:01;;;;;;;19.67;3.78;;;;;;;18.47;43.27;100655.66;5025668;28;20030;-83
2023/04/22 08:39:27;;;;;;;12.68;3.40;;;;;;;18.41;43.38;100659.06;5020875;28;20121;-87
2023/04/22 08:41:52;;;;;;;31.05;7.32;;;;;;;18.38;43.08;100651.25;5013173;28;20112;-83
2023/04/22 08:44:18;;;;;;;15.40;3.60;;;;;;;18.30;42.38;100654.00;5019224;28;20034;-82
2023/04/22 08:46:47;;;;;;;15.35;3.25;;;;;;;18.34;42.54;100651.78;5018963;28;20026;-84
2023/04/22 08:49:17;;;;;;;25.77;4.50;;;;;;;18.28;42.77;100655.22;5010014;28;20021;-86
2023/04/22 08:51:43;;;;;;;19.67;4.20;;;;;;;18.37;42.14;100648.72;5014825;28;20508;-83
2023/04/22 08:54:10;;;;;;;24.80;3.67;;;;;;;18.42;42.40;100647.16;5010803;28;20102;-80
2023/04/22 08:56:40;;;;;;;25.15;4.10;;;;;;;18.57;42.33;100658.22;5011051;28;20045;-84
2023/04/22 08:59:06;;;;;;;19.63;3.95;;;;;;;18.53;42.19;100642.41;5015008;28;20054;-81
2023/04/22 09:01:33;;;;;;;14.18;3.50;;;;;;;18.55;42.44;100640.34;5012568;28;20073;-84
2023/04/22 09:03:59;;;;;;;20.52;5.00;;;;;;;18.74;42.26;100656.28;5008365;28;20057;-81
2023/04/22 09:06:26;;;;;;;14.98;3.45;;;;;;;18.64;42.37;100650.19;4988299;28;20038;-82
2023/04/22 09:08:52;;;;;;;18.73;3.55;;;;;;;18.51;42.12;100655.34;5007635;28;20030;-82
2023/04/22 09:11:18;;;;;;;22.92;3.08;;;;;;;18.52;41.55;100663.34;5007299;28;20045;-81
2023/04/22 09:13:43;;;;;;;19.73;3.17;;;;;;;18.48;41.14;100649.19;5018030;28;20042;-82
2023/04/22 09:16:09;;;;;;;22.83;2.88;;;;;;;18.67;41.52;100655.28;5016799;28;20042;-79
2023/04/22 09:18:42;;;;;;;13.88;2.50;;;;;;;18.77;41.19;100658.66;5010162;28;20105;-80
2023/04/22 09:21:07;;;;;;;15.57;4.18;;;;;;;18.90;41.49;100645.28;5006838;28;20030;-81
2023/04/22 09:23:46;;;;;;;20.45;3.58;;;;;;;19.17;40.57;100653.00;5007608;28;20022;-83
2023/04/22 09:26:11;;;;;;;11.88;2.88;;;;;;;19.17;40.75;100633.91;5007376;28;20047;-81
2023/04/22 09:28:37;;;;;;;9.35;2.58;;;;;;;19.38;39.92;100639.56;5007785;28;20424;-82
2023/04/22 09:31:02;;;;;;;14.85;3.05;;;;;;;19.43;39.36;100664.44;5007345;28;20030;-85
2023/04/22 09:33:30;;;;;;;26.73;4.03;;;;;;;19.41;39.51;100647.44;5008010;28;20466;-81
2023/04/22 09:35:55;;;;;;;19.15;3.40;;;;;;;19.51;39.57;100653.47;5007169;28;20038;-83
2023/04/22 09:38:21;;;;;;;9.23;2.90;;;;;;;19.52;39.19;100655.19;5007288;28;20063;-81
2023/04/22 09:40:46;;;;;;;12.80;2.45;;;;;;;19.46;39.52;100641.41;5007087;28;20124;-87
2023/04/22 09:43:17;;;;;;;25.05;4.47;;;;;;;19.41;38.84;100650.16;4988862;28;20034;-81
2023/04/22 09:45:44;;;;;;;11.27;2.78;;;;;;;19.31;39.46;100648.66;5007437;28;20121;-81
2023/04/22 09:48:17;;;;;;;21.05;3.05;;;;;;;19.33;39.64;100663.78;5008078;28;20022;-86
2023/04/22 09:50:46;;;;;;;8.73;3.00;;;;;;;19.29;39.31;100648.00;5006960;28;20054;-91
2023/04/22 09:53:14;;;;;;;12.43;2.65;;;;;;;19.38;39.67;100647.75;5007737;28;20580;-84
2023/04/22 09:55:42;;;;;;;13.30;2.80;;;;;;;19.58;38.36;100644.56;5008175;28;20038;-85
2023/04/22 09:58:13;;;;;;;16.20;3.25;;;;;;;19.74;38.58;100644.44;5009677;28;20018;-92
2023/04/22 10:00:44;;;;;;;15.98;3.65;;;;;;;19.99;38.95;100648.66;5011910;28;20046;-84
2023/04/22 10:03:10;;;;;;;12.70;3.63;;;;;;;20.21;38.17;100634.09;5010920;28;20076;-86
2023/04/22 10:05:36;;;;;;;20.02;3.97;;;;;;;20.32;37.64;100636.38;5012356;28;20045;-86
2023/04/22 10:08:07;;;;;;;14.82;3.33;;;;;;;20.33;37.61;100635.34;5014234;28;20037;-86
2023/04/22 10:10:33;;;;;;;12.70;3.05;;;;;;;20.27;38.02;100638.00;5023819;28;20061;-80
2023/04/22 10:12:59;;;;;;;12.07;2.85;;;;;;;19.93;38.28;100642.06;5035613;28;20094;-81
2023/04/22 10:15:25;;;;;;;13.13;3.50;;;;;;;20.00;38.44;100650.31;5029292;28;20038;-87
2023/04/22 10:17:53;;;;;;;11.85;2.85;;;;;;;19.93;37.76;100635.72;5011861;28;20108;-85
2023/04/22 10:20:20;;;;;;;48.67;5.53;;;;;;;19.92;38.06;100642.22;5012012;28;20030;-86
2023/04/22 10:22:46;;;;;;;18.48;2.42;;;;;;;19.98;37.82;100646.94;5011277;28;20032;-88
2023/04/22 10:25:13;;;;;;;24.40;3.47;;;;;;;19.97;38.25;100639.78;5014343;28;20112;-87
2023/04/22 10:27:39;;;;;;;32.20;3.53;;;;;;;19.84;37.70;100645.03;5011526;28;20025;-89
2023/04/22 10:30:28;;;;;;;11.63;3.40;;;;;;;19.95;37.27;100648.16;5010977;28;20041;-86
2023/04/22 10:32:53;;;;;;;22.15;2.65;;;;;;;20.06;37.33;100634.06;4969479;28;20035;-89
2023/04/22 10:35:28;;;;;;;13.90;2.35;;;;;;;20.21;37.77;100620.44;4969235;28;20050;-84
2023/04/22 10:37:54;;;;;;;26.77;3.53;;;;;;;20.58;37.65;100628.56;4969110;28;20070;-88
2023/04/22 10:40:21;;;;;;;46.47;8.07;;;;;;;20.71;36.96;100632.50;4971343;28;20617;-79
2023/04/22 10:42:51;;;;;;;19.27;4.15;;;;;;;20.37;37.19;100639.38;4989115;28;20037;-86
2023/04/22 10:45:16;;;;;;;17.30;2.95;;;;;;;20.09;37.79;100632.81;4972666;28;20502;-87
2023/04/22 10:47:42;;;;;;;37.30;4.90;;;;;;;20.34;37.64;100631.56;4969134;28;20027;-84
2023/04/22 10:50:09;;;;;;;20.10;4.32;;;;;;;20.53;37.27;100631.00;4968763;28;20078;-85
2023/04/22 10:52:35;;;;;;;19.10;3.45;;;;;;;20.48;37.63;100632.63;4971978;28;20099;-84
2023/04/22 10:55:01;;;;;;;15.10;2.92;;;;;;;20.30;36.86;100627.53;4971808;28;20426;-86
2023/04/22 10:57:36;;;;;;;11.93;2.60;;;;;;;20.37;37.08;100620.25;4969211;28;20043;-87
2023/04/22 11:00:21;;;;;;;24.58;3.70;;;;;;;20.80;36.99;100620.41;4969029;28;20522;-87
2023/04/22 11:02:56;;;;;;;19.92;3.13;;;;;;;21.02;37.59;100616.69;4971614;28;20034;-88
2023/04/22 11:05:26;;;;;;;31.95;3.65;;;;;;;21.31;37.39;100624.00;4955145;28;20039;-83
2023/04/22 11:07:54;;;;;;;24.20;3.72;;;;;;;21.15;37.15;100630.56;4986716;28;20038;-82
2023/04/22 11:10:32;;;;;;;17.75;3.58;;;;;;;20.84;37.80;100629.94;5004098;28;20513;-83